Time;durP1;ratioP1;P1;durP2;ratioP2;P2;SDS_P1;SDS_P2;PMS_P1;PMS_P2;Temp;Humidity;BMP_temperature;BMP_pressure;BME280_temperature;BME280_humidity;BME280_pressure;Samples;Min_cycle;Max_cycle;Signal;HPM_P1;HPM_P2
2023/02/20 00:01:16;;;;;;;7.00;3.50;;;8.70;99.90;;;;;;6239167;28;20046;-81
2023/02/20 00:04:18;;;;;;;10.02;4.95;;;8.70;99.90;;;;;;6242462;28;20046;-81
2023/02/20 00:07:20;;;;;;;9.57;4.30;;;8.60;99.90;;;;;;6247613;28;20110;-83
2023/02/20 00:10:23;;;;;;;10.85;4.80;;;8.60;99.90;;;;;;6248073;28;20045;-82
2023/02/20 00:13:26;;;;;;;6.38;4.55;;;8.60;99.90;;;;;;6246356;28;20076;-81
2023/02/20 00:16:27;;;;;;;7.90;4.70;;;8.50;99.90;;;;;;6246391;28;20046;-82
2023/02/20 00:19:29;;;;;;;15.18;6.68;;;8.50;99.90;;;;;;6246114;28;20054;-81
2023/02/20 00:22:31;;;;;;;11.90;4.85;;;8.40;99.90;;;;;;6245254;28;20050;-82
2023/02/20 00:25:32;;;;;;;12.82;5.05;;;8.40;99.90;;;;;;6244892;28;20056;-81
2023/02/20 00:28:37;;;;;;;10.40;4.47;;;8.30;99.90;;;;;;6244168;28;20046;-82
2023/02/20 00:31:39;;;;;;;13.82;4.30;;;8.30;99.90;;;;;;6244428;28;20054;-81
2023/02/20 00:34:40;;;;;;;9.98;4.55;;;8.30;99.90;;;;;;6244517;28;20054;-82
2023/02/20 00:37:42;;;;;;;11.35;4.15;;;8.20;99.90;;;;;;6243603;28;20068;-82
2023/02/20 00:40:44;;;;;;;10.05;6.95;;;8.10;99.90;;;;;;6244198;28;20150;-81
2023/02/20 00:43:47;;;;;;;11.05;4.75;;;8.10;99.90;;;;;;6242371;28;20052;-82
2023/02/20 00:46:48;;;;;;;16.05;6.00;;;8.10;99.90;;;;;;6239816;28;20057;-80
2023/02/20 00:49:50;;;;;;;6.07;4.50;;;8.00;99.90;;;;;;6239542;28;20050;-80
2023/02/20 00:52:52;;;;;;;15.10;5.80;;;8.00;99.90;;;;;;6239455;28;20050;-82
2023/02/20 00:55:54;;;;;;;10.88;5.65;;;7.90;99.90;;;;;;6239658;28;20065;-81
2023/02/20 00:58:57;;;;;;;9.65;7.00;;;7.90;99.90;;;;;;6239199;28;20050;-81
2023/02/20 01:01:59;;;;;;;13.00;5.03;;;7.80;99.90;;;;;;6238474;28;20050;-80
2023/02/20 01:05:00;;;;;;;5.43;4.65;;;7.80;99.90;;;;;;6238020;28;20054;-81
2023/02/20 01:08:02;;;;;;;11.25;4.75;;;7.70;99.90;;;;;;6238167;28;20046;-81
2023/02/20 01:11:04;;;;;;;8.55;5.13;;;7.70;99.90;;;;;;6239518;28;20054;-80
2023/02/20 01:14:07;;;;;;;10.43;6.05;;;7.60;99.90;;;;;;6237351;28;20412;-79
2023/02/20 01:17:09;;;;;;;12.82;4.57;;;7.60;99.90;;;;;;6238770;28;20108;-81
2023/02/20 01:20:11;;;;;;;11.00;5.50;;;7.50;99.90;;;;;;6240862;28;20129;-80
2023/02/20 01:23:13;;;;;;;18.70;6.40;;;7.40;99.90;;;;;;6236861;28;20072;-81
2023/02/20 01:26:15;;;;;;;9.50;5.20;;;7.40;99.90;;;;;;6235424;28;20049;-81
2023/02/20 01:29:19;;;;;;;13.77;5.55;;;7.30;99.90;;;;;;6235700;28;20168;-80
2023/02/20 01:32:20;;;;;;;7.07;5.05;;;7.30;99.90;;;;;;6232243;28;20056;-80
2023/02/20 01:35:22;;;;;;;12.68;5.95;;;7.20;99.90;;;;;;6238384;28;20056;-81
2023/02/20 01:38:24;;;;;;;11.75;5.55;;;7.20;99.90;;;;;;6251681;28;20049;-81
2023/02/20 01:41:25;;;;;;;10.77;5.88;;;7.20;99.90;;;;;;6242872;28;20046;-82
2023/02/20 01:44:31;;;;;;;22.52;5.28;;;7.20;99.90;;;;;;6242871;28;20048;-82
2023/02/20 01:47:32;;;;;;;17.08;6.30;;;7.20;99.90;;;;;;6243844;28;20109;-82
2023/02/20 01:50:39;;;;;;;10.50;5.78;;;7.20;99.90;;;;;;6244131;28;20072;-81
2023/02/20 01:53:41;;;;;;;14.15;6.28;;;7.20;99.90;;;;;;6243756;28;20097;-82
2023/02/20 01:56:45;;;;;;;9.60;5.10;;;7.30;99.90;;;;;;6244623;28;20046;-82
2023/02/20 01:59:52;;;;;;;9.88;4.63;;;7.30;99.90;;;;;;6245558;28;20053;-83
2023/02/20 02:02:57;;;;;;;13.90;5.13;;;7.40;99.90;;;;;;6244901;28;20056;-79
2023/02/20 02:06:01;;;;;;;6.72;4.32;;;7.40;99.90;;;;;;6237266;28;20128;-82
2023/02/20 02:09:08;;;;;;;10.10;5.30;;;7.40;99.90;;;;;;6239007;28;20040;-81
2023/02/20 02:12:10;;;;;;;8.07;4.53;;;7.40;99.90;;;;;;6238006;28;20113;-81
2023/02/20 02:15:16;;;;;;;10.07;5.10;;;7.40;99.90;;;;;;6239137;28;20050;-80
2023/02/20 02:18:48;;;;;;;16.77;7.45;;;7.40;99.90;;;;;;6239097;28;20046;-81
2023/02/20 02:22:29;;;;;;;11.68;5.38;;;7.40;99.90;;;;;;6214044;28;20056;-81
2023/02/20 02:25:47;;;;;;;8.68;5.35;;;7.40;99.90;;;;;;6212716;28;20100;-79
2023/02/20 02:29:32;;;;;;;9.10;5.35;;;7.30;99.90;;;;;;6213422;28;20465;-81
2023/02/20 02:33:11;;;;;;;9.52;4.75;;;7.30;99.90;;;;;;6222082;28;20128;-81
2023/02/20 02:37:00;;;;;;;11.38;4.68;;;7.30;99.90;;;;;;6237756;28;20042;-81
2023/02/20 02:40:08;;;;;;;11.27;5.75;;;7.30;99.90;;;;;;6189651;28;20051;-81
2023/02/20 02:43:15;;;;;;;9.85;5.97;;;7.30;99.90;;;;;;6238150;28;20541;-80
2023/02/20 02:46:26;;;;;;;8.43;5.30;;;7.30;99.90;;;;;;6237270;28;20121;-80
2023/02/20 02:49:35;;;;;;;10.55;6.10;;;7.20;99.90;;;;;;6237781;28;20048;-81
2023/02/20 02:52:47;;;;;;;21.30;5.47;;;7.20;99.90;;;;;;6237855;28;20442;-80
2023/02/20 02:55:49;;;;;;;9.23;5.68;;;7.20;99.90;;;;;;6237032;28;20049;-81
2023/02/20 02:58:54;;;;;;;13.73;6.40;;;7.20;99.90;;;;;;6236877;28;20046;-81
2023/02/20 03:01:59;;;;;;;9.10;5.85;;;7.20;99.90;;;;;;6237021;28;20056;-81
2023/02/20 03:05:04;;;;;;;10.45;5.53;;;7.20;99.90;;;;;;6236470;28;20046;-81
2023/02/20 03:08:13;;;;;;;11.38;5.95;;;7.20;99.90;;;;;;6236459;28;20133;-81
2023/02/20 03:11:17;;;;;;;13.82;5.85;;;7.20;99.90;;;;;;6236188;28;20124;-80
2023/02/20 03:17:47;;;;;;;12.30;5.47;;;7.10;99.90;;;;;;6236243;28;20121;-81
2023/02/20 03:20:53;;;;;;;11.07;6.18;;;7.10;99.90;;;;;;6237112;28;20075;-80
2023/02/20 03:24:00;;;;;;;17.75;8.32;;;7.10;99.90;;;;;;6233727;28;20645;-80
2023/02/20 03:27:04;;;;;;;16.33;5.73;;;7.10;99.90;;;;;;6237427;28;20048;-80
2023/02/20 03:30:11;;;;;;;13.95;5.90;;;7.10;99.90;;;;;;6237867;28;20293;-81
2023/02/20 03:43:32;;;;;;;8.35;5.47;;;7.10;99.90;;;;;;6241425;28;20049;-80
2023/02/20 03:46:37;;;;;;;14.75;5.30;;;7.00;99.90;;;;;;6239426;28;20042;-80
2023/02/20 03:49:43;;;;;;;13.90;6.57;;;7.00;99.90;;;;;;6240645;28;20046;-81
2023/02/20 03:52:44;;;;;;;12.52;6.15;;;7.00;99.90;;;;;;6240474;28;20676;-80
2023/02/20 03:55:49;;;;;;;11.75;6.38;;;7.00;99.90;;;;;;6242353;28;20132;-81
2023/02/20 03:58:55;;;;;;;8.82;6.32;;;7.00;99.90;;;;;;6242881;28;20054;-81
2023/02/20 04:02:00;;;;;;;10.27;6.55;;;6.90;99.90;;;;;;6239864;28;20053;-80
2023/02/20 04:05:06;;;;;;;11.13;5.82;;;6.90;99.90;;;;;;6240284;28;20049;-80
2023/02/20 04:08:12;;;;;;;14.20;6.25;;;6.90;99.90;;;;;;6242900;28;20052;-82
2023/02/20 04:11:21;;;;;;;10.55;5.95;;;6.80;99.90;;;;;;6245751;28;20046;-82
2023/02/20 04:14:27;;;;;;;12.75;6.00;;;6.80;99.90;;;;;;6245144;28;20056;-82
2023/02/20 04:17:32;;;;;;;9.25;6.45;;;6.80;99.90;;;;;;6244544;28;20095;-82
2023/02/20 04:20:34;;;;;;;12.32;6.03;;;6.80;99.90;;;;;;6244262;28;20456;-81
2023/02/20 04:23:40;;;;;;;16.25;7.00;;;6.80;99.90;;;;;;6244119;28;20343;-81
2023/02/20 04:26:44;;;;;;;16.40;7.15;;;6.80;99.90;;;;;;6242185;28;20056;-81
2023/02/20 04:29:45;;;;;;;9.07;5.65;;;6.80;99.90;;;;;;6242365;28;20415;-81
2023/02/20 04:32:47;;;;;;;23.90;11.55;;;6.70;99.90;;;;;;6242507;28;20050;-80
2023/02/20 04:35:49;;;;;;;12.98;6.97;;;6.70;99.90;;;;;;6241555;28;20064;-81
2023/02/20 04:38:51;;;;;;;15.57;6.70;;;6.70;99.90;;;;;;6241564;28;20060;-81
2023/02/20 04:41:54;;;;;;;24.48;9.40;;;6.60;99.90;;;;;;6241330;28;20046;-80
2023/02/20 04:44:55;;;;;;;10.98;6.93;;;6.60;99.90;;;;;;6239872;28;20060;-81
2023/02/20 04:47:57;;;;;;;11.57;7.05;;;6.60;99.90;;;;;;6239546;28;20136;-81
2023/02/20 04:50:58;;;;;;;11.00;7.22;;;6.60;99.90;;;;;;6242661;28;20057;-82
2023/02/20 04:54:02;;;;;;;16.52;9.23;;;6.60;99.90;;;;;;6264772;23;20485;-78
2023/02/20 04:57:05;;;;;;;18.08;7.55;;;6.60;99.90;;;;;;6239868;28;20049;-78
2023/02/20 05:00:09;;;;;;;21.88;8.55;;;6.50;99.90;;;;;;6249811;28;20393;-78
2023/02/20 05:03:10;;;;;;;13.77;7.10;;;6.50;99.90;;;;;;6250994;28;20053;-78
2023/02/20 05:06:12;;;;;;;11.95;6.35;;;6.50;99.90;;;;;;6226478;28;20050;-78
2023/02/20 05:09:14;;;;;;;10.25;6.32;;;6.50;99.90;;;;;;6225768;28;20042;-78
2023/02/20 05:12:20;;;;;;;18.42;8.55;;;6.40;99.90;;;;;;6225562;28;20373;-78
2023/02/20 05:15:22;;;;;;;18.00;9.60;;;6.50;99.90;;;;;;6224413;28;20049;-78
2023/02/20 05:18:25;;;;;;;12.82;6.88;;;6.40;99.90;;;;;;6224517;28;20050;-78
2023/02/20 05:24:55;;;;;;;13.77;7.68;;;6.30;99.90;;;;;;6220292;28;20058;-78
2023/02/20 05:27:58;;;;;;;14.25;6.63;;;6.30;99.90;;;;;;6219610;28;20041;-78
2023/02/20 05:31:01;;;;;;;10.48;7.47;;;6.30;99.90;;;;;;6224581;28;20045;-78
2023/02/20 05:34:04;;;;;;;14.05;7.22;;;6.40;99.90;;;;;;6222936;28;20449;-78
2023/02/20 05:37:07;;;;;;;15.93;7.93;;;6.40;99.90;;;;;;6223209;28;20133;-78
2023/02/20 05:40:10;;;;;;;13.90;7.32;;;6.40;99.90;;;;;;6220512;28;20076;-78
2023/02/20 05:43:14;;;;;;;10.00;6.40;;;6.40;99.90;;;;;;6224594;28;20500;-78
2023/02/20 05:46:16;;;;;;;16.83;8.32;;;6.40;99.90;;;;;;6222547;28;20050;-78
2023/02/20 05:49:18;;;;;;;13.77;6.88;;;6.40;99.90;;;;;;6224657;28;20053;-78
2023/02/20 05:52:21;;;;;;;12.50;6.78;;;6.30;99.90;;;;;;6223599;28;20415;-78
2023/02/20 05:55:23;;;;;;;13.55;7.43;;;6.30;99.90;;;;;;6224450;28;20058;-78
2023/02/20 05:58:27;;;;;;;12.02;7.57;;;6.20;99.90;;;;;;6224826;28;20061;-79
2023/02/20 06:01:36;;;;;;;11.15;7.68;;;6.20;99.90;;;;;;6227732;28;20072;-78
2023/02/20 06:04:40;;;;;;;16.35;9.05;;;6.20;99.90;;;;;;6226342;28;20128;-78
2023/02/20 06:07:43;;;;;;;14.25;8.43;;;6.20;99.90;;;;;;6224068;28;20050;-78
2023/02/20 06:10:45;;;;;;;16.95;10.43;;;6.10;99.90;;;;;;6219825;28;20499;-78
2023/02/20 06:13:52;;;;;;;19.15;8.38;;;6.10;99.90;;;;;;6223896;28;20045;-78
2023/02/20 06:16:53;;;;;;;13.35;8.38;;;6.00;99.90;;;;;;6224662;28;20061;-78
2023/02/20 06:19:55;;;;;;;12.05;8.18;;;6.10;99.90;;;;;;6223649;28;20053;-79
2023/02/20 06:22:57;;;;;;;13.45;8.18;;;6.00;99.90;;;;;;6224340;28;20050;-79
2023/02/20 06:25:59;;;;;;;13.20;8.13;;;6.10;99.90;;;;;;6224167;28;20524;-79
2023/02/20 06:29:02;;;;;;;20.90;8.77;;;6.00;99.90;;;;;;6224259;28;20049;-79
2023/02/20 06:32:08;;;;;;;15.65;8.05;;;6.00;99.90;;;;;;6216193;28;20049;-79
2023/02/20 06:35:09;;;;;;;17.23;8.38;;;5.90;99.90;;;;;;6229523;28;20050;-79
2023/02/20 06:38:19;;;;;;;21.13;7.85;;;6.00;99.90;;;;;;6212126;28;20160;-79
2023/02/20 06:41:21;;;;;;;15.00;8.93;;;5.90;99.90;;;;;;6225608;28;20058;-79
2023/02/20 06:44:24;;;;;;;13.15;9.75;;;5.90;99.90;;;;;;6225759;28;20053;-79
2023/02/20 06:47:26;;;;;;;13.48;8.23;;;5.90;99.90;;;;;;6225831;28;20052;-79
2023/02/20 06:50:38;;;;;;;12.70;6.93;;;5.90;99.90;;;;;;6225790;28;20049;-79
2023/02/20 06:53:41;;;;;;;11.02;7.50;;;5.90;99.90;;;;;;6224986;28;20050;-78
2023/02/20 06:56:42;;;;;;;12.05;8.15;;;5.90;99.90;;;;;;6223630;28;20046;-79
2023/02/20 06:59:48;;;;;;;14.88;7.78;;;6.00;99.90;;;;;;6225481;28;20058;-79
2023/02/20 07:02:50;;;;;;;15.18;8.13;;;6.00;99.90;;;;;;6224943;28;20045;-79
2023/02/20 07:05:52;;;;;;;18.35;8.15;;;6.10;99.90;;;;;;6224146;28;20050;-79
2023/02/20 07:08:54;;;;;;;13.38;9.20;;;6.20;99.90;;;;;;6198073;28;20495;-79
2023/02/20 07:11:57;;;;;;;14.88;8.60;;;6.30;99.90;;;;;;6226039;28;20057;-79
2023/02/20 07:15:00;;;;;;;11.85;7.75;;;6.40;99.90;;;;;;6228699;28;20046;-79
2023/02/20 07:18:01;;;;;;;15.48;8.07;;;6.50;99.90;;;;;;6229401;28;20057;-80
2023/02/20 07:21:04;;;;;;;19.85;8.25;;;6.70;99.90;;;;;;6229274;28;20046;-79
2023/02/20 07:24:06;;;;;;;8.32;6.90;;;6.80;99.90;;;;;;6217253;28;20045;-81
2023/02/20 07:27:12;;;;;;;9.05;7.07;;;7.00;99.90;;;;;;6232953;28;20496;-79
2023/02/20 07:30:15;;;;;;;9.60;7.20;;;7.20;99.90;;;;;;6226911;28;20132;-78
2023/02/20 07:33:19;;;;;;;15.35;6.80;;;7.40;99.90;;;;;;6227514;28;20046;-79
2023/02/20 07:36:21;;;;;;;13.25;5.85;;;7.50;99.90;;;;;;6228931;28;20050;-79
2023/02/20 07:39:26;;;;;;;11.93;6.15;;;7.70;99.90;;;;;;6228100;28;20049;-78
2023/02/20 07:42:28;;;;;;;15.73;8.35;;;7.90;99.90;;;;;;6228236;28;20042;-78
2023/02/20 07:45:31;;;;;;;11.52;7.03;;;8.00;99.90;;;;;;6227313;28;20149;-79
2023/02/20 07:48:35;;;;;;;9.93;6.68;;;8.20;99.90;;;;;;6227027;28;20046;-79
2023/02/20 07:51:45;;;;;;;9.82;5.82;;;8.30;99.90;;;;;;6228702;28;20053;-79
2023/02/20 07:54:46;;;;;;;9.57;5.95;;;8.50;99.90;;;;;;6235600;28;20056;-81
2023/02/20 07:57:49;;;;;;;10.50;5.82;;;8.70;99.90;;;;;;6234076;28;20037;-79
2023/02/20 08:00:55;;;;;;;9.30;5.57;;;8.80;99.90;;;;;;6230447;28;20511;-80
2023/02/20 08:03:56;;;;;;;9.48;6.28;;;9.00;99.90;;;;;;6235413;28;20056;-79
2023/02/20 08:06:59;;;;;;;9.38;5.55;;;9.10;99.90;;;;;;6229292;28;20054;-79
2023/02/20 08:10:01;;;;;;;11.65;5.57;;;9.30;99.90;;;;;;6229803;28;20150;-77
2023/02/20 08:13:03;;;;;;;15.40;5.53;;;9.50;99.90;;;;;;6226960;28;20050;-77
2023/02/20 08:16:07;;;;;;;8.57;5.95;;;9.60;99.90;;;;;;6226546;28;20046;-77
2023/02/20 08:19:08;;;;;;;9.98;5.40;;;9.80;99.90;;;;;;6227142;28;20053;-79
2023/02/20 08:22:10;;;;;;;8.00;5.05;;;10.00;99.90;;;;;;6226259;28;20050;-77
2023/02/20 08:25:12;;;;;;;8.75;4.45;;;10.20;99.90;;;;;;6226715;28;20042;-78
2023/02/20 08:28:15;;;;;;;7.93;4.60;;;10.30;99.90;;;;;;6226723;28;20167;-77
2023/02/20 08:31:18;;;;;;;10.98;5.40;;;10.40;99.90;;;;;;6227010;28;20050;-77
2023/02/20 08:34:20;;;;;;;9.13;4.32;;;10.70;99.90;;;;;;6225765;28;20050;-77
2023/02/20 08:37:22;;;;;;;7.45;5.20;;;10.90;99.90;;;;;;6225887;28;20049;-77
2023/02/20 08:40:23;;;;;;;10.05;4.22;;;11.10;99.90;;;;;;6226343;28;20050;-77
2023/02/20 08:43:26;;;;;;;7.90;4.18;;;11.30;99.90;;;;;;6226446;28;20517;-77
2023/02/20 08:46:29;;;;;;;7.82;3.90;;;11.30;99.90;;;;;;6225547;28;20415;-77
2023/02/20 08:49:30;;;;;;;8.35;6.00;;;11.50;99.90;;;;;;6227033;28;20046;-77
2023/02/20 08:52:32;;;;;;;10.27;4.57;;;11.70;99.90;;;;;;6225545;28;20054;-77
2023/02/20 08:55:34;;;;;;;6.75;4.07;;;11.80;99.90;;;;;;6225644;28;20396;-77
2023/02/20 08:58:35;;;;;;;7.65;4.40;;;12.00;99.90;;;;;;6224786;28;20511;-76
2023/02/20 09:01:41;;;;;;;10.60;4.05;;;12.30;99.90;;;;;;6224751;28;20052;-77
2023/02/20 09:04:44;;;;;;;8.50;4.38;;;12.40;99.90;;;;;;6225279;28;20103;-77
2023/02/20 09:07:45;;;;;;;5.35;3.53;;;12.60;99.90;;;;;;6213098;28;20054;-78
2023/02/20 09:10:47;;;;;;;8.95;4.38;;;12.70;99.90;;;;;;6213863;28;20050;-78
2023/02/20 09:13:49;;;;;;;6.65;4.43;;;12.90;99.90;;;;;;6214423;28;20415;-79
2023/02/20 09:16:53;;;;;;;9.20;4.47;;;13.10;99.90;;;;;;6214186;28;20049;-79
2023/02/20 09:19:55;;;;;;;6.32;3.50;;;13.20;99.90;;;;;;6214516;28;20041;-79
2023/02/20 09:22:58;;;;;;;6.97;3.38;;;13.50;99.90;;;;;;6206291;28;20060;-78
2023/02/20 09:26:00;;;;;;;6.18;3.38;;;13.50;99.90;;;;;;6220716;28;20049;-77
2023/02/20 09:29:02;;;;;;;6.28;3.75;;;13.60;99.90;;;;;;6223751;28;20050;-77
2023/02/20 09:32:05;;;;;;;5.80;2.70;;;13.60;99.90;;;;;;6224938;28;20496;-78
2023/02/20 09:35:07;;;;;;;5.88;3.80;;;13.90;99.90;;;;;;6224421;28;20054;-77
2023/02/20 09:38:09;;;;;;;6.63;3.63;;;14.10;99.90;;;;;;6224060;28;20049;-80
2023/02/20 09:41:23;;;;;;;5.70;3.30;;;14.00;99.90;;;;;;6222812;28;20049;-79
2023/02/20 09:44:32;;;;;;;4.18;3.13;;;13.90;99.90;;;;;;6211142;28;20069;-79
2023/02/20 09:47:48;;;;;;;8.88;3.42;;;13.80;99.90;;;;;;6215419;28;20049;-77
2023/02/20 09:50:54;;;;;;;9.13;3.53;;;13.70;99.90;;;;;;6219381;23;20041;-78
2023/02/20 09:54:02;;;;;;;15.68;4.60;;;13.60;99.90;;;;;;6213503;28;20484;-79
2023/02/20 09:57:13;;;;;;;10.43;4.05;;;13.80;99.90;;;;;;6215600;28;20054;-78
2023/02/20 10:00:27;;;;;;;4.53;2.33;;;14.00;99.90;;;;;;6215202;28;20045;-78
2023/02/20 10:03:39;;;;;;;6.90;3.08;;;14.20;99.60;;;;;;6216788;28;20042;-78
2023/02/20 10:06:40;;;;;;;7.07;3.78;;;14.30;99.10;;;;;;6215979;28;20480;-78
2023/02/20 10:09:43;;;;;;;5.38;2.83;;;14.50;99.30;;;;;;6216423;28;20050;-78
2023/02/20 10:12:55;;;;;;;13.55;4.25;;;14.70;98.90;;;;;;6213819;28;20175;-78
2023/02/20 10:16:03;;;;;;;7.78;2.47;;;14.90;98.00;;;;;;6212999;28;20506;-78
2023/02/20 10:19:13;;;;;;;;;;;14.90;98.00;;;;;;6214694;28;20049;-78
2023/02/20 10:22:21;;;;;;;6.88;2.53;;;15.10;97.80;;;;;;6215384;28;19928;-79
2023/02/20 10:25:28;;;;;;;7.20;2.75;;;15.30;97.70;;;;;;6214431;28;20061;-79
2023/02/20 10:28:30;;;;;;;6.25;2.97;;;15.30;97.00;;;;;;6213483;28;20057;-78
2023/02/20 10:31:40;;;;;;;7.47;2.60;;;15.30;96.60;;;;;;6214500;28;20050;-78
2023/02/20 10:34:54;;;;;;;5.45;3.20;;;15.20;96.80;;;;;;6214914;28;20050;-77
2023/02/20 10:37:58;;;;;;;8.32;3.13;;;15.40;96.40;;;;;;6214230;28;20057;-78
2023/02/20 10:41:05;;;;;;;4.65;2.60;;;15.50;95.60;;;;;;6214246;28;20054;-77
2023/02/20 10:44:17;;;;;;;5.28;2.97;;;15.40;95.10;;;;;;6210674;28;20607;-76
2023/02/20 10:47:25;;;;;;;5.55;2.95;;;15.40;95.00;;;;;;6212423;28;20054;-76
2023/02/20 10:50:32;;;;;;;7.47;3.88;;;15.60;95.00;;;;;;6213143;28;20472;-77
2023/02/20 10:53:39;;;;;;;3.53;3.08;;;15.70;94.10;;;;;;6212634;28;20050;-76
2023/02/20 10:56:45;;;;;;;6.22;3.85;;;15.70;94.00;;;;;;6217745;28;20553;-77
2023/02/20 10:59:51;;;;;;;4.43;3.90;;;15.70;93.60;;;;;;6237296;28;20052;-77
2023/02/20 11:02:58;;;;;;;6.55;3.70;;;15.80;93.60;;;;;;6233601;28;20607;-77
2023/02/20 11:06:03;;;;;;;4.67;3.30;;;15.80;93.60;;;;;;6236162;28;20045;-77
2023/02/20 11:09:07;;;;;;;6.18;4.28;;;15.70;93.50;;;;;;6236727;28;20042;-77
2023/02/20 11:12:22;;;;;;;10.52;3.95;;;16.00;93.50;;;;;;6237507;28;20099;-76
2023/02/20 11:15:26;;;;;;;7.10;4.40;;;16.20;93.20;;;;;;6236720;28;20057;-77
2023/02/20 11:18:32;;;;;;;15.15;4.00;;;16.20;92.80;;;;;;6233000;28;20048;-77
2023/02/20 11:21:38;;;;;;;10.48;5.05;;;16.30;93.10;;;;;;6235501;28;20049;-77
2023/02/20 11:24:46;;;;;;;8.43;4.47;;;16.50;92.40;;;;;;6236484;28;20061;-77
2023/02/20 11:27:50;;;;;;;10.35;4.72;;;16.40;92.00;;;;;;6236529;28;20049;-77
2023/02/20 11:31:02;;;;;;;8.55;3.88;;;16.40;92.40;;;;;;6238123;28;20061;-77
2023/02/20 11:34:06;;;;;;;8.55;4.05;;;16.60;92.40;;;;;;6237617;28;20585;-77
2023/02/20 11:37:14;;;;;;;7.22;4.78;;;16.90;92.00;;;;;;6237240;28;20056;-77
2023/02/20 11:40:17;;;;;;;;;;;17.00;91.10;;;;;;6237120;28;20057;-77
2023/02/20 11:43:23;;;;;;;9.63;4.35;;;16.90;91.10;;;;;;6237856;28;19936;-77
2023/02/20 11:46:25;;;;;;;11.88;4.35;;;16.90;91.20;;;;;;6234190;28;20057;-80
2023/02/20 11:49:29;;;;;;;8.55;4.10;;;17.00;90.90;;;;;;6237101;28;20056;-77
2023/02/20 11:52:32;;;;;;;6.22;4.03;;;17.00;90.50;;;;;;6236468;28;20056;-77
2023/02/20 11:55:34;;;;;;;10.50;4.65;;;17.10;90.70;;;;;;6236615;28;20045;-77
2023/02/20 11:58:38;;;;;;;8.32;4.75;;;17.20;90.20;;;;;;6238765;28;20042;-77
2023/02/20 12:01:40;;;;;;;6.15;3.75;;;17.30;90.40;;;;;;6239845;28;20408;-77
2023/02/20 12:04:42;;;;;;;9.57;4.72;;;17.40;90.00;;;;;;6236050;28;20049;-77
2023/02/20 12:07:57;;;;;;;9.75;4.38;;;17.70;89.00;;;;;;6249894;28;20053;-77
2023/02/20 12:11:01;;;;;;;6.20;3.35;;;18.00;88.40;;;;;;6241604;28;20049;-77
2023/02/20 12:14:10;;;;;;;7.55;4.45;;;18.10;87.10;;;;;;6241366;28;20045;-78
2023/02/20 12:17:24;;;;;;;7.70;3.90;;;18.10;85.40;;;;;;6238878;28;20053;-77
2023/02/20 12:20:29;;;;;;;10.48;5.18;;;17.80;85.30;;;;;;6238783;28;20710;-77
2023/02/20 12:23:42;;;;;;;7.28;3.92;;;17.60;85.30;;;;;;6242230;28;20054;-77
2023/02/20 12:26:52;;;;;;;9.05;3.92;;;17.70;86.00;;;;;;6240411;28;20049;-78
2023/02/20 12:30:01;;;;;;;8.95;6.32;;;17.70;85.20;;;;;;6239057;28;20041;-77
2023/02/20 12:33:18;;;;;;;8.70;5.38;;;18.00;85.60;;;;;;6238604;28;20060;-77
2023/02/20 12:36:31;;;;;;;8.18;4.35;;;18.30;84.20;;;;;;6239689;28;20045;-77
2023/02/20 12:39:43;;;;;;;8.13;4.30;;;17.80;83.10;;;;;;6239657;28;20068;-77
2023/02/20 12:42:51;;;;;;;10.68;8.55;;;17.70;84.60;;;;;;6238953;28;20135;-78
2023/02/20 12:46:05;;;;;;;9.13;5.05;;;18.00;84.10;;;;;;6239232;28;20060;-77
2023/02/20 12:49:25;;;;;;;14.15;5.13;;;17.90;83.00;;;;;;6238417;28;20050;-77
2023/02/20 12:52:46;;;;;;;7.13;4.57;;;17.80;83.20;;;;;;6239920;28;20041;-78
2023/02/20 12:56:04;;;;;;;10.20;8.93;;;17.80;82.90;;;;;;6241262;28;20069;-78
2023/02/20 12:59:22;;;;;;;22.38;5.43;;;18.10;82.90;;;;;;6239983;28;20068;-77
2023/02/20 13:02:29;;;;;;;6.22;4.30;;;18.60;81.30;;;;;;6239010;28;20060;-77
2023/02/20 13:05:32;;;;;;;;;;;18.70;81.60;;;;;;6238260;28;20042;-78
2023/02/20 13:08:39;;;;;;;6.45;4.25;;;18.80;81.10;;;;;;6241598;28;19927;-77
2023/02/20 13:11:45;;;;;;;8.60;4.10;;;18.70;80.80;;;;;;6239904;28;20061;-79
2023/02/20 13:14:59;;;;;;;11.25;5.30;;;19.10;80.10;;;;;;6243342;28;20296;-79
2023/02/20 13:18:16;;;;;;;30.30;22.70;;;19.50;79.50;;;;;;6230610;28;20049;-78
2023/02/20 13:21:21;;;;;;;8.57;4.85;;;19.80;78.90;;;;;;6238815;28;20055;-78
2023/02/20 13:24:32;;;;;;;8.43;6.45;;;20.00;77.00;;;;;;6238760;28;20044;-78
2023/02/20 13:27:36;;;;;;;8.23;5.45;;;19.90;77.40;;;;;;6239241;28;20057;-79
2023/02/20 13:30:39;;;;;;;7.82;4.57;;;20.00;77.50;;;;;;6238692;28;20054;-80
2023/02/20 13:33:42;;;;;;;5.82;4.88;;;20.30;76.50;;;;;;6241277;28;20411;-80
2023/02/20 13:36:46;;;;;;;7.63;3.88;;;20.20;75.10;;;;;;6241242;28;20049;-80
2023/02/20 13:39:54;;;;;;;8.32;4.53;;;20.10;75.10;;;;;;6242393;28;20175;-79
2023/02/20 13:43:28;;;;;;;5.97;4.35;;;19.90;75.10;;;;;;6241518;28;20057;-80
2023/02/20 13:47:02;;;;;;;8.45;4.35;;;20.00;74.60;;;;;;6239827;28;20124;-80
2023/02/20 13:53:52;;;;;;;9.15;7.30;;;19.80;73.50;;;;;;6222697;28;20077;-79
2023/02/20 13:57:01;;;;;;;12.20;6.55;;;19.80;74.20;;;;;;6241135;28;20045;-78
2023/02/20 14:00:23;;;;;;;8.45;3.83;;;19.90;74.00;;;;;;6239819;28;20045;-78
2023/02/20 14:03:27;;;;;;;9.98;4.18;;;20.30;73.60;;;;;;6240072;28;20045;-77
2023/02/20 14:06:29;;;;;;;9.95;4.47;;;20.60;72.70;;;;;;6238987;28;20049;-78
2023/02/20 14:09:31;;;;;;;8.05;3.95;;;20.30;71.10;;;;;;6239712;28;20045;-78
2023/02/20 14:12:34;;;;;;;5.78;3.53;;;19.90;71.70;;;;;;6239562;28;20045;-79
2023/02/20 14:15:47;;;;;;;7.47;3.55;;;19.70;72.00;;;;;;6240397;28;20203;-78
2023/02/20 14:18:48;;;;;;;6.63;3.55;;;19.70;72.00;;;;;;6239848;28;20041;-78
2023/02/20 14:21:52;;;;;;;9.93;3.50;;;19.60;72.10;;;;;;6239732;28;20049;-78
2023/02/20 14:25:24;;;;;;;6.25;3.47;;;19.80;72.00;;;;;;6240844;28;20211;-78
2023/02/20 14:28:26;;;;;;;9.45;4.18;;;20.00;70.80;;;;;;6238081;28;20045;-79
2023/02/20 14:31:42;;;;;;;6.30;4.25;;;20.00;70.80;;;;;;6239786;28;20499;-79
2023/02/20 14:34:53;;;;;;;6.53;3.35;;;20.10;71.00;;;;;;6239358;28;20393;-79
2023/02/20 14:38:04;;;;;;;11.02;4.38;;;20.40;70.00;;;;;;6239163;28;20115;-78
2023/02/20 14:41:16;;;;;;;6.10;3.70;;;20.40;69.40;;;;;;6237433;28;20045;-78
2023/02/20 14:44:22;;;;;;;8.07;3.53;;;20.30;69.10;;;;;;6239624;28;20053;-79
2023/02/20 14:47:25;;;;;;;4.97;2.80;;;20.00;69.20;;;;;;6239344;28;20188;-78
2023/02/20 14:50:29;;;;;;;4.78;3.03;;;19.90;69.80;;;;;;6236331;28;20037;-79
2023/02/20 14:53:37;;;;;;;6.90;3.65;;;20.10;69.00;;;;;;6238535;28;21122;-78
2023/02/20 14:56:42;;;;;;;8.98;3.38;;;20.00;68.60;;;;;;6233190;28;20052;-80
2023/02/20 14:59:44;;;;;;;9.00;3.45;;;19.90;69.00;;;;;;6256606;28;20042;-80
2023/02/20 15:02:54;;;;;;;4.07;2.72;;;20.20;69.10;;;;;;6243867;28;20046;-80
2023/02/20 15:06:00;;;;;;;5.20;3.28;;;20.40;67.90;;;;;;6240286;28;20045;-79
2023/02/20 15:09:08;;;;;;;8.30;2.92;;;20.10;68.20;;;;;;6238400;28;20050;-79
2023/02/20 15:12:19;;;;;;;;;;;19.90;68.70;;;;;;6240987;28;20054;-79
2023/02/20 15:15:22;;;;;;;11.95;3.22;;;19.90;68.60;;;;;;6242072;28;23130;-80
2023/02/20 15:18:34;;;;;;;7.97;3.75;;;19.70;68.80;;;;;;6237103;28;20049;-80
2023/02/20 15:21:39;;;;;;;7.40;3.03;;;19.80;69.00;;;;;;6245319;28;20068;-80
2023/02/20 15:24:41;;;;;;;5.75;2.88;;;19.90;68.70;;;;;;6242694;28;20053;-80
2023/02/20 15:28:04;;;;;;;4.18;3.20;;;19.70;68.90;;;;;;6241403;28;20056;-79
2023/02/20 15:31:21;;;;;;;6.78;3.22;;;19.50;69.20;;;;;;6242307;28;20052;-81
2023/02/20 15:34:26;;;;;;;7.28;2.83;;;19.50;69.40;;;;;;6244906;28;20121;-79
2023/02/20 15:37:30;;;;;;;5.85;2.40;;;19.40;69.40;;;;;;6243975;28;20439;-79
2023/02/20 15:40:33;;;;;;;5.47;3.10;;;19.30;69.30;;;;;;6244226;28;20033;-79
2023/02/20 15:43:35;;;;;;;7.22;3.25;;;19.10;69.80;;;;;;6248136;28;20072;-79
2023/02/20 15:46:37;;;;;;;3.85;2.60;;;19.00;70.00;;;;;;6245021;28;20045;-79
2023/02/20 15:49:40;;;;;;;5.93;3.30;;;18.70;70.10;;;;;;6241778;28;20041;-79
2023/02/20 15:52:44;;;;;;;6.72;2.95;;;18.50;70.30;;;;;;6243038;28;20041;-79
2023/02/20 15:55:49;;;;;;;7.07;3.22;;;17.80;70.70;;;;;;6246421;28;20060;-79
2023/02/20 15:58:51;;;;;;;16.67;12.63;;;17.10;72.10;;;;;;6242036;28;20411;-79
2023/02/20 16:01:53;;;;;;;7.70;4.95;;;16.60;73.10;;;;;;6244029;28;20069;-79
2023/02/20 16:04:56;;;;;;;10.05;4.28;;;16.30;74.00;;;;;;6244737;28;20120;-79
2023/02/20 16:07:58;;;;;;;8.35;3.80;;;16.00;74.80;;;;;;6243843;28;20530;-79
2023/02/20 16:10:59;;;;;;;8.63;3.20;;;15.80;75.40;;;;;;6245496;28;20486;-79
2023/02/20 16:14:02;;;;;;;7.28;3.35;;;15.60;76.10;;;;;;6247090;28;20058;-79
2023/02/20 16:17:04;;;;;;;11.02;2.70;;;15.30;76.80;;;;;;6246842;28;20060;-79
2023/02/20 16:20:15;;;;;;;4.45;3.03;;;15.20;77.30;;;;;;6246675;28;20405;-78
2023/02/20 16:23:17;;;;;;;6.05;2.83;;;15.00;78.10;;;;;;6247478;28;20049;-79
2023/02/20 16:26:20;;;;;;;6.65;3.30;;;14.80;78.60;;;;;;6245558;28;20128;-79
2023/02/20 16:29:29;;;;;;;9.77;3.10;;;14.70;79.20;;;;;;6244675;28;20060;-79